Hoss — WDC6733 — position and weather

sailwx.info

Track history (hours):
 
Tides and Currents Weather Stations Pressure Air Temp Water Temp Dewpoint Dewpoint Depression Visibility Wind Speed Wind Dir Waves Ship Positions

Hoss

Owner: Intracoastal Marine Inc., Coinjock, NC. More information available from US FCC via Universal Licensing System and Coast Guard Vessel Documentation Center.

Last reported at 2017-Dec-11 15:00 UTC. Time now 2017-Dec-11 15:24 UTC.
Position N 36°48' W 076°18'.

Length 10 m; draft 3 m.

Type: Tug. MMSI: 367060510.

Date/timePositionNaut miles runAvg speedWind from/ knotsBaromVisibWave heightAir tempDewpointWater temp
2017-Dec-11 15:00N 36°48' W 076°18'2 4.1
2017-Dec-11 14:30N 36°46' W 076°18'0 0.4
2017-Dec-11 14:00N 36°46' W 076°18'0 0.0
2017-Dec-11 13:30N 36°46' W 076°18'0 0.0
2017-Dec-11 13:00N 36°46' W 076°18'0 0.1
2017-Dec-11 12:30N 36°46' W 076°18'0 0.0
2017-Dec-11 12:00N 36°46' W 076°18'0 0.0
2017-Dec-11 11:30N 36°46' W 076°18'0 0.0
2017-Dec-11 11:00N 36°46' W 076°18'0 0.0
2017-Dec-11 10:30N 36°46' W 076°18'0 0.0
2017-Dec-11 10:00N 36°46' W 076°18'0 0.0
2017-Dec-11 09:30N 36°46' W 076°18'0 0.0
2017-Dec-11 09:01N 36°46' W 076°18'0 0.0
2017-Dec-11 08:30N 36°46' W 076°18'0 0.0
2017-Dec-11 08:00N 36°46' W 076°18'0 0.0
2017-Dec-11 07:30N 36°46' W 076°18'0 0.0
2017-Dec-11 07:00N 36°46' W 076°18'0 0.0
2017-Dec-11 06:30N 36°46' W 076°18'0 0.0
2017-Dec-11 06:00N 36°46' W 076°18'0 0.0
2017-Dec-11 05:30N 36°46' W 076°18'0 0.0
2017-Dec-11 05:00N 36°46' W 076°18'0 0.0
2017-Dec-11 04:30N 36°46' W 076°18'0 0.0
2017-Dec-11 04:00N 36°46' W 076°18'0 0.0
2017-Dec-11 03:30N 36°46' W 076°18'0 0.5
2017-Dec-11 03:00N 36°46' W 076°18'3 5.3
2017-Dec-11 02:30N 36°48' W 076°17'0 0.0
2017-Dec-11 02:00N 36°48' W 076°17'0 0.0
2017-Dec-11 01:30N 36°48' W 076°17'0 0.0
2017-Dec-09 11:16N 36°48' W 076°17'0 0.0
2017-Dec-09 11:00N 36°48' W 076°17'1 1.7
2017-Dec-09 10:30N 36°49' W 076°17'2 3.3
2017-Dec-09 10:00N 36°51' W 076°18'3 6.0
2017-Dec-09 09:30N 36°53' W 076°20'5 0.2
2017-Dec-08 02:13N 36°57' W 076°24'2 7.9
2017-Dec-08 02:00N 36°57' W 076°22'4 6.6
2017-Dec-08 01:23N 36°53' W 076°20'3 7.3
2017-Dec-08 01:00N 36°51' W 076°18'2 3.2
2017-Dec-08 00:30N 36°49' W 076°17'1 1.7
2017-Dec-08 00:00N 36°48' W 076°17'0 0.0
2017-Dec-07 23:30N 36°48' W 076°17'0 0.0
2017-Dec-07 23:00N 36°48' W 076°17'0 0.0
2017-Dec-07 22:30N 36°48' W 076°17'0 0.0
2017-Dec-07 22:00N 36°48' W 076°17'0 0.0
2017-Dec-07 21:30N 36°48' W 076°17'0 0.0
2017-Dec-07 21:00N 36°48' W 076°17'1 2.6
2017-Dec-07 20:30N 36°50' W 076°18'3 5.7
2017-Dec-07 20:00N 36°52' W 076°20'118 6.5
2017-Dec-07 01:56N 38°50' W 076°27'6 5.7
2017-Dec-07 00:52N 38°56' W 076°25'4 5.7
2017-Dec-07 00:09N 38°60' W 076°23'2 5.1
2017-Dec-06 23:50N 39°01' W 076°22'5 5.6
2017-Dec-06 22:56N 39°06' W 076°23'5 6.0
2017-Dec-06 22:04N 39°11' W 076°27'0 6.3
2017-Dec-06 22:00N 39°11' W 076°27'3 6.6
2017-Dec-06 21:30N 39°12' W 076°31'2 4.0
2017-Dec-06 21:00N 39°13' W 076°33'  
2017-Dec-04 10:25N 39°13' W 076°33'0 0.0
2017-Dec-04 09:59N 39°13' W 076°33'0 0.0
2017-Dec-04 09:23N 39°13' W 076°33'0 0.0
2017-Dec-04 08:56N 39°13' W 076°33'0 0.0
2017-Dec-04 08:30N 39°13' W 076°33'0 0.0
2017-Dec-04 07:32N 39°13' W 076°33'0 0.2
2017-Dec-04 07:29N 39°13' W 076°33'0 0.0
2017-Dec-04 06:48N 39°13' W 076°33'0 0.0
2017-Dec-04 06:19N 39°13' W 076°33'0 0.0
2017-Dec-04 06:00N 39°13' W 076°33'0 0.0
2017-Dec-04 05:30N 39°13' W 076°33'2 4.5
2017-Dec-04 05:00N 39°12' W 076°31'3 6.4
2017-Dec-04 04:30N 39°11' W 076°27'3 6.0
2017-Dec-04 04:00N 39°09' W 076°24'3 5.7
2017-Dec-04 03:31N 39°06' W 076°24'3 6.1
2017-Dec-04 03:00N 39°03' W 076°23'3 5.4
2017-Dec-04 02:30N 39°00' W 076°23'3 6.0
2017-Dec-04 02:00N 38°57' W 076°24'3 6.3
2017-Dec-04 01:30N 38°54' W 076°25'3 6.5
2017-Dec-04 01:00N 38°51' W 076°26'43 7.0
2017-Dec-03 18:50N 38°09' W 076°17'4 7.8
2017-Dec-03 18:16N 38°04' W 076°15'2 7.0
2017-Dec-03 17:56N 38°02' W 076°15'65 1.6
2017-Dec-02 01:16N 36°57' W 076°22'3 6.9
2017-Dec-02 00:49N 36°54' W 076°20'2 7.8
2017-Dec-02 00:30N 36°52' W 076°19'3 5.9
2017-Dec-02 00:00N 36°49' W 076°17'1 1.7
2017-Dec-01 23:30N 36°50' W 076°18'1 1.6
2017-Dec-01 23:00N 36°50' W 076°17'1 1.3
2017-Dec-01 22:30N 36°50' W 076°18'1 1.9
2017-Dec-01 22:00N 36°50' W 076°16'0 0.1
2017-Dec-01 21:30N 36°50' W 076°16'0 0.3
2017-Dec-01 21:00N 36°50' W 076°16'1 2.1
2017-Dec-01 20:29N 36°50' W 076°15'0 0.0
2017-Dec-01 19:59N 36°50' W 076°15'2 4.9
2017-Dec-01 19:30N 36°50' W 076°18'2 3.6
2017-Dec-01 19:00N 36°48' W 076°18'0 0.0
2017-Dec-01 18:30N 36°48' W 076°18'0 0.0
2017-Dec-01 18:00N 36°48' W 076°18'0 0.0
2017-Dec-01 17:30N 36°48' W 076°18'0 0.0
2017-Dec-01 17:00N 36°48' W 076°18'0 0.0
2017-Dec-01 16:30N 36°48' W 076°18'  
Track history (hours):
 
Tides and Currents Weather Stations Pressure Air Temp Water Temp Dewpoint Dewpoint Depression Visibility Wind Speed Wind Dir Waves Ship Positions

Hoss

Owner: Intracoastal Marine Inc., Coinjock, NC. More information available from US FCC via Universal Licensing System and Coast Guard Vessel Documentation Center.

Last reported at 2017-Dec-11 15:00 UTC. Time now 2017-Dec-11 15:24 UTC.
Position N 36°48' W 076°18'.

Length 10 m; draft 3 m.

Type: Tug. MMSI: 367060510.

Date/timePositionNaut miles runAvg speedWind from/ knotsBaromVisibWave heightAir tempDewpointWater temp
2017-Dec-11 15:00N 36°48' W 076°18'2 4.1
2017-Dec-11 14:30N 36°46' W 076°18'0 0.4
2017-Dec-11 14:00N 36°46' W 076°18'0 0.0
2017-Dec-11 13:30N 36°46' W 076°18'0 0.0
2017-Dec-11 13:00N 36°46' W 076°18'0 0.1
2017-Dec-11 12:30N 36°46' W 076°18'0 0.0
2017-Dec-11 12:00N 36°46' W 076°18'0 0.0
2017-Dec-11 11:30N 36°46' W 076°18'0 0.0
2017-Dec-11 11:00N 36°46' W 076°18'0 0.0
2017-Dec-11 10:30N 36°46' W 076°18'0 0.0
2017-Dec-11 10:00N 36°46' W 076°18'0 0.0
2017-Dec-11 09:30N 36°46' W 076°18'0 0.0
2017-Dec-11 09:01N 36°46' W 076°18'0 0.0
2017-Dec-11 08:30N 36°46' W 076°18'0 0.0
2017-Dec-11 08:00N 36°46' W 076°18'0 0.0
2017-Dec-11 07:30N 36°46' W 076°18'0 0.0
2017-Dec-11 07:00N 36°46' W 076°18'0 0.0
2017-Dec-11 06:30N 36°46' W 076°18'0 0.0
2017-Dec-11 06:00N 36°46' W 076°18'0 0.0
2017-Dec-11 05:30N 36°46' W 076°18'0 0.0
2017-Dec-11 05:00N 36°46' W 076°18'0 0.0
2017-Dec-11 04:30N 36°46' W 076°18'0 0.0
2017-Dec-11 04:00N 36°46' W 076°18'0 0.0
2017-Dec-11 03:30N 36°46' W 076°18'0 0.5
2017-Dec-11 03:00N 36°46' W 076°18'3 5.3
2017-Dec-11 02:30N 36°48' W 076°17'0 0.0
2017-Dec-11 02:00N 36°48' W 076°17'0 0.0
2017-Dec-11 01:30N 36°48' W 076°17'0 0.0
2017-Dec-09 11:16N 36°48' W 076°17'0 0.0
2017-Dec-09 11:00N 36°48' W 076°17'1 1.7
2017-Dec-09 10:30N 36°49' W 076°17'2 3.3
2017-Dec-09 10:00N 36°51' W 076°18'3 6.0
2017-Dec-09 09:30N 36°53' W 076°20'5 0.2
2017-Dec-08 02:13N 36°57' W 076°24'2 7.9
2017-Dec-08 02:00N 36°57' W 076°22'4 6.6
2017-Dec-08 01:23N 36°53' W 076°20'3 7.3
2017-Dec-08 01:00N 36°51' W 076°18'2 3.2
2017-Dec-08 00:30N 36°49' W 076°17'1 1.7
2017-Dec-08 00:00N 36°48' W 076°17'0 0.0
2017-Dec-07 23:30N 36°48' W 076°17'0 0.0
2017-Dec-07 23:00N 36°48' W 076°17'0 0.0
2017-Dec-07 22:30N 36°48' W 076°17'0 0.0
2017-Dec-07 22:00N 36°48' W 076°17'0 0.0
2017-Dec-07 21:30N 36°48' W 076°17'0 0.0
2017-Dec-07 21:00N 36°48' W 076°17'1 2.6
2017-Dec-07 20:30N 36°50' W 076°18'3 5.7
2017-Dec-07 20:00N 36°52' W 076°20'118 6.5
2017-Dec-07 01:56N 38°50' W 076°27'6 5.7
2017-Dec-07 00:52N 38°56' W 076°25'4 5.7
2017-Dec-07 00:09N 38°60' W 076°23'2 5.1
2017-Dec-06 23:50N 39°01' W 076°22'5 5.6
2017-Dec-06 22:56N 39°06' W 076°23'5 6.0
2017-Dec-06 22:04N 39°11' W 076°27'0 6.3
2017-Dec-06 22:00N 39°11' W 076°27'3 6.6
2017-Dec-06 21:30N 39°12' W 076°31'2 4.0
2017-Dec-06 21:00N 39°13' W 076°33'  
2017-Dec-04 10:25N 39°13' W 076°33'0 0.0
2017-Dec-04 09:59N 39°13' W 076°33'0 0.0
2017-Dec-04 09:23N 39°13' W 076°33'0 0.0
2017-Dec-04 08:56N 39°13' W 076°33'0 0.0
2017-Dec-04 08:30N 39°13' W 076°33'0 0.0
2017-Dec-04 07:32N 39°13' W 076°33'0 0.2
2017-Dec-04 07:29N 39°13' W 076°33'0 0.0
2017-Dec-04 06:48N 39°13' W 076°33'0 0.0
2017-Dec-04 06:19N 39°13' W 076°33'0 0.0
2017-Dec-04 06:00N 39°13' W 076°33'0 0.0
2017-Dec-04 05:30N 39°13' W 076°33'2 4.5
2017-Dec-04 05:00N 39°12' W 076°31'3 6.4
2017-Dec-04 04:30N 39°11' W 076°27'3 6.0
2017-Dec-04 04:00N 39°09' W 076°24'3 5.7
2017-Dec-04 03:31N 39°06' W 076°24'3 6.1
2017-Dec-04 03:00N 39°03' W 076°23'3 5.4
2017-Dec-04 02:30N 39°00' W 076°23'3 6.0
2017-Dec-04 02:00N 38°57' W 076°24'3 6.3
2017-Dec-04 01:30N 38°54' W 076°25'3 6.5
2017-Dec-04 01:00N 38°51' W 076°26'43 7.0
2017-Dec-03 18:50N 38°09' W 076°17'4 7.8
2017-Dec-03 18:16N 38°04' W 076°15'2 7.0
2017-Dec-03 17:56N 38°02' W 076°15'65 1.6
2017-Dec-02 01:16N 36°57' W 076°22'3 6.9
2017-Dec-02 00:49N 36°54' W 076°20'2 7.8
2017-Dec-02 00:30N 36°52' W 076°19'3 5.9
2017-Dec-02 00:00N 36°49' W 076°17'1 1.7
2017-Dec-01 23:30N 36°50' W 076°18'1 1.6
2017-Dec-01 23:00N 36°50' W 076°17'1 1.3
2017-Dec-01 22:30N 36°50' W 076°18'1 1.9
2017-Dec-01 22:00N 36°50' W 076°16'0 0.1
2017-Dec-01 21:30N 36°50' W 076°16'0 0.3
2017-Dec-01 21:00N 36°50' W 076°16'1 2.1
2017-Dec-01 20:29N 36°50' W 076°15'0 0.0
2017-Dec-01 19:59N 36°50' W 076°15'2 4.9
2017-Dec-01 19:30N 36°50' W 076°18'2 3.6
2017-Dec-01 19:00N 36°48' W 076°18'0 0.0
2017-Dec-01 18:30N 36°48' W 076°18'0 0.0
2017-Dec-01 18:00N 36°48' W 076°18'0 0.0
2017-Dec-01 17:30N 36°48' W 076°18'0 0.0
2017-Dec-01 17:00N 36°48' W 076°18'0 0.0
2017-Dec-01 16:30N 36°48' W 076°18'  

Dump ship's entire track history